Comstock Park, MI (49321)

7:37 PM EST on February 05, 2016 (GMT -0500)
Trillium Glen | | Change Station
CLOSE
Current Station
Personal Weather Station
Location: Comstock Park, MI
Elevation: 712 ft
Nearby Weather Stations

Elev 712 ft 43.04 °N, 85.67 °W | Updated 9 seconds ago

Mostly Cloudy
Mostly Cloudy
26.4 °F
Feels Like 26 °F
N
0.0
Wind Variable Wind from SW
Gusts 0.0 mph

Today
High -- | Low -- °F
--% Chance of Precip.
Yesterday
High -- | Low -- °F
Precip. -- in
Pressure 30.35 in
Visibility 10.0 miles
Clouds Mostly Cloudy 22000 ft
Windchill 26 °F
Dew Point 17 °F
Humidity 67%
Rainfall in
Snow Depth Not available.
7:53 AM 5:59 PM
Waning Crescent, 8% visible
METAR KGRR 052353Z 26007KT 10SM BKN220 M02/M07 A3032 RMK AO2 SLP278 4/001 60001 T10221072 10000 21028 53008
Pressure 30.35 in
Visibility 10.0 miles
Clouds Mostly Cloudy 22000 ft
Windchill 26 °F
Dew Point 17 °F
Humidity 67%
Rainfall in
Snow Depth Not available.
7:53 AM 5:59 PM
Waning Crescent, 8% visible
METAR KGRR 052353Z 26007KT 10SM BKN220 M02/M07 A3032 RMK AO2 SLP278 4/001 60001 T10221072 10000 21028 53008

10-Day Weather Forecast

Almanac

Astronomy

Feb. 05, 2016 Rise Set
Actual Time
Civil Twilight
Nautical Twilight
Astronomical Twilight
Moon
Length of Visible Light
Length of Day
Tomorrow will be .
, % of the Moon is Illuminated

Today's Extremes

State Highs State Lows

Community

WunderPhotos

Upload Photos

1,890,899 photos uploaded!

WunderBlog® & News

Nearby

Air Quality

  Air Quality AQ Index Pollutant
Not available.

Snow Depth

Station Depth Elevation

Earthquake Activity

City Distance Mag. Time & Date
Minimum magnitude displayed is 2.5.

Coastal Water Temperatures

Place Temperature

Stations

Nearby Weather Stations

Station Location Temp. Windchill Dew Point Humidity Wind Precip. Elev Updated Type
                   

Watches & Warnings

There are currently no watches in effect.